Oiapoque Airport

SBOI · Guyane, Brazilië

METAR historie SBOI · Oiapoque Airport

Hieronder zie je METAR's van de afgelopen dagen. Kies een jaar om door oudere METAR's te bladeren, vanaf het jaar 2007.

24 mei 2024

Tijd Code Weer Temp. Zicht Plafond Wind METAR/SPECI
12:00
V
29 °C 10 km+ - 050° 050° 8 kt METAR SBOI 241500Z AUTO 05008KT 020V080 9999 FEW003 SCT029 29/26 Q1012
11:00
M
30 °C 10 km+ 3.000 ft 130° 130° 6 kt METAR SBOI 241400Z AUTO 13006KT 090V170 9999 FEW025 BKN030 30/25 Q1012
10:00
V
30 °C 10 km+ - Var Var 3 kt METAR SBOI 241300Z AUTO VRB03KT 9999 FEW019 30/25 Q1012
09:00
V
28 °C 10 km+ - Var Var 2 kt METAR SBOI 241200Z AUTO VRB02KT CAVOK 28/25 Q1012
08:00
V
27 °C 10 km+ - 360° 360° 0 kt METAR SBOI 241100Z AUTO 00000KT 9999 FEW004 27/25 Q1012
06:38
V
25 °C 10 km+ 5.400 ft Var Var 1 kt METAR SBOI 240938Z AUTO VRB01KT 9999 // FEW011/// SCT046/// OVC054/// 25/25 Q1011
06:00
M
25 °C 10 km+ 1.100 ft 070° 070° 4 kt METAR SBOI 240900Z AUTO 07004KT 020V120 9999 // SCT002/// BKN011/// OVC018/// 25/25 Q1012
05:00
V
25 °C 10 km+ 10.000 ft 030° 030° 2 kt METAR SBOI 240800Z AUTO 03002KT 9999 // FEW001/// SCT003/// BKN100/// 25/25 Q1011
00:00
V
26 °C 10 km+ 6.100 ft 310° 310° 2 kt METAR SBOI 240300Z AUTO 31002KT 9999 // BKN061/// 26/25 Q1013

23 mei 2024

Tijd Code Weer Temp. Zicht Plafond Wind METAR/SPECI
23:10
V
26 °C 10 km+ 4.400 ft 290° 290° 3 kt METAR SBOI 240210Z AUTO 29003KT 230V320 9999 // BKN044/// OVC055/// 26/25 Q1013
23:00
I
26 °C 1,6 km 4.200 ft Var Var 2 kt METAR SBOI 240200Z AUTO VRB02KT 1600 // BKN042/// OVC052/// 26/25 Q1013
22:00
M
25 °C 10 km+ 2.400 ft 160° 160° 4 kt METAR SBOI 240100Z AUTO 16004KT 130V190 9999 // FEW006/// BKN024/// OVC053/// 25/25 Q1013
22:34
L
26 °C 1,2 km 4.100 ft Var Var 2 kt METAR SBOI 240134Z AUTO VRB02KT 1200 // FEW012/// BKN041/// BKN050/// 26/25 Q1013
22:19
I
26 °C 1,9 km 4.100 ft 160° 160° 3 kt METAR SBOI 240119Z AUTO 16003KT 100V220 1900 // FEW009/// BKN041/// BKN047/// 26/25 Q1013
22:06
M
26 °C 10 km+ 1.100 ft 150° 150° 4 kt METAR SBOI 240106Z AUTO 15004KT 110V190 9999 // FEW007/// BKN011/// OVC054/// 26/25 Q1013
21:35
I
26 °C 4,2 km 2.400 ft 170° 170° 5 kt METAR SBOI 240035Z AUTO 17005KT 130V200 4200 // FEW005/// OVC024/// 26/25 Q1013
21:16
M
26 °C 5 km 1.900 ft 150° 150° 7 kt METAR SBOI 240016Z AUTO 15007KT 130V190 5000 // FEW005/// OVC019/// 26/25 Q1013
21:02
I
26 °C 9 km 900 ft 160° 160° 6 kt METAR SBOI 240002Z AUTO 16006KT 130V190 9000 // BKN009/// BKN018/// 26/25 Q1013
19:26
V
26 °C 10 km+ 3.700 ft 120° 120° 3 kt METAR SBOI 232226Z AUTO 12003KT 080V170 9999 // FEW011/// SCT022/// BKN037/// 26/26 Q1011
19:15
M
26 °C 10 km+ 1.200 ft Var Var 2 kt METAR SBOI 232215Z AUTO VRB02KT 9999 // BKN012/// BKN021/// BKN042/// 26/26 Q1011
19:00
V
26 °C 10 km+ 4.200 ft Var Var 2 kt METAR SBOI 232200Z AUTO VRB02KT 9999 // FEW010/// SCT018/// BKN042/// 26/26 Q1011
18:37
I
26 °C 8 km 800 ft 360° 360° 5 kt METAR SBOI 232137Z AUTO 36005KT 310V040 8000 // BKN008/// OVC021/// 26/26 Q1011
18:17
I
27 °C 10 km+ 800 ft 340° 340° 3 kt METAR SBOI 232117Z AUTO 34003KT 300V010 9999 // BKN008/// BKN014/// BKN053/// 27/26 Q1011
18:07
I
27 °C 10 km+ 800 ft 020° 020° 4 kt METAR SBOI 232107Z AUTO 02004KT 350V050 9999 // BKN008/// BKN024/// BKN049/// 27/26 Q1011
18:00
V
27 °C 10 km+ 5.000 ft Var Var 2 kt METAR SBOI 232100Z AUTO VRB02KT 9999 // FEW008/// SCT024/// BKN050/// 27/26 Q1011
17:40
V
27 °C 10 km+ 4.900 ft Var Var 2 kt METAR SBOI 232040Z AUTO VRB02KT 9999 -RA FEW011 SCT024 OVC049 27/26 Q1010 RERA
17:25
I
27 °C 3,3 km 2.400 ft 140° 140° 6 kt METAR SBOI 232025Z AUTO 14006KT 090V200 3300 +RA FEW014 SCT016 BKN024 27/25 Q1010
17:00
V
29 °C 10 km+ 3.800 ft Var Var 2 kt METAR SBOI 232000Z AUTO VRB02KT 9999 -RA SCT018 BKN038 29/26 Q1010 RERA
16:22
V
28 °C 10 km+ - Var Var 2 kt METAR SBOI 231922Z AUTO VRB02KT 9999 -RA SCT018 28/26 Q1010 RERA
16:12
I
29 °C 2,8 km 2.000 ft 090° 090° 7 - 21 kt METAR SBOI 231912Z AUTO 09007G21KT 030V180 2800 +RA BKN020 29/25 Q1010
16:00
V
31 °C 10 km+ - 060° 060° 4 kt METAR SBOI 231900Z AUTO 06004KT 360V110 9999 FEW025 31/25 Q1010
15:00
V
30 °C 10 km+ - 100° 100° 5 kt METAR SBOI 231800Z AUTO 10005KT 050V150 9999 SCT026 30/25 Q1010
14:00
V
30 °C 10 km+ - 050° 050° 5 kt METAR SBOI 231700Z AUTO 05005KT 010V140 CAVOK 30/25 Q1011
13:00
V
27 °C 10 km+ - 100° 100° 5 kt METAR SBOI 231600Z AUTO 10005KT 050V140 9999 -RA FEW043 27/26 Q1013
12:00
M
30 °C 10 km+ 2.300 ft 140° 140° 8 kt METAR SBOI 231500Z AUTO 14008KT 9999 BKN023 30/25 Q1013
11:00
M
29 °C 10 km+ 2.000 ft 150° 150° 6 kt METAR SBOI 231400Z AUTO 15006KT 090V200 9999 BKN020 BKN047 29/25 Q1014
10:00
V
29 °C 10 km+ - 140° 140° 3 kt METAR SBOI 231300Z AUTO 14003KT 070V190 9999 FEW013 SCT016 29/25 Q1014
09:00
M
28 °C 10 km+ 3.000 ft 360° 360° 0 kt METAR SBOI 231200Z AUTO 00000KT 9999 FEW006 BKN030 BKN038 28/26 Q1013
08:36
M
26 °C 10 km+ 2.700 ft Var Var 2 kt METAR SBOI 231136Z AUTO VRB02KT 9999 SCT005 BKN027 26/25 Q1013
08:01
I
25 °C 10 km+ 500 ft 360° 360° 0 kt METAR SBOI 231101Z AUTO 00000KT 9999 // BKN005/// BKN064/// 25/25 Q1013
07:00
V
25 °C 9 km 4.800 ft 240° 240° 3 kt METAR SBOI 231000Z AUTO 24003KT 190V260 9000 // FEW004/// BKN048/// BKN083/// 25/24 Q1012
06:39
M
25 °C 10 km+ 1.400 ft 210° 210° 3 kt METAR SBOI 230939Z AUTO 21003KT 9999 // FEW004/// BKN014/// BKN033/// 25/25 Q1012
06:31
M
25 °C 9 km 1.600 ft 200° 200° 2 kt METAR SBOI 230931Z AUTO 20002KT 9000 // SCT014/// BKN016/// OVC059/// 25/24 Q1012
05:00
V
25 °C 10 km+ - 190° 190° 1 kt METAR SBOI 230800Z AUTO 19001KT 9999 // NCD 25/24 Q1012
04:00
V
25 °C 10 km+ - Var Var 2 kt METAR SBOI 230700Z AUTO VRB02KT 9999 // NCD 25/25 Q1011
03:00
M
25 °C 10 km+ 2.000 ft 160° 160° 4 kt METAR SBOI 230600Z AUTO 16004KT 120V180 9999 // FEW001/// SCT012/// BKN020/// 25/25 Q1012
01:00
V
25 °C 10 km+ 7.000 ft 010° 010° 2 kt METAR SBOI 230400Z AUTO 01002KT 9999 // FEW019/// BKN070/// 25/25 Q1013

22 mei 2024

Tijd Code Weer Temp. Zicht Plafond Wind METAR/SPECI
23:00
V
26 °C 10 km+ - 360° 360° 0 kt METAR SBOI 230200Z AUTO 00000KT 9999 // FEW027/// 26/25 Q1014
22:00
M
26 °C 10 km+ 2.400 ft 360° 360° 0 kt METAR SBOI 230100Z AUTO 00000KT 9999 // BKN024/// 26/25 Q1013
21:00
V
26 °C 10 km+ - 010° 010° 1 kt METAR SBOI 230000Z AUTO 01001KT 9999 // FEW089/// 26/25 Q1013
20:00
V
27 °C 10 km+ - 030° 030° 1 kt METAR SBOI 222300Z AUTO 03001KT 9999 // NCD 27/25 Q1012
19:00
V
28 °C 10 km+ - 040° 040° 4 kt METAR SBOI 222200Z AUTO 04004KT CAVOK 28/25 Q1011
18:00
V
30 °C 10 km+ - 080° 080° 5 kt METAR SBOI 222100Z AUTO 08005KT 040V130 9999 FEW033 30/24 Q1011
17:00
V
31 °C 10 km+ - 060° 060° 3 kt METAR SBOI 222000Z AUTO 06003KT 030V140 9999 FEW032 31/25 Q1010
16:00
V
31 °C 10 km+ - 050° 050° 7 kt METAR SBOI 221900Z AUTO 05007KT 360V080 9999 FEW038 31/25 Q1011
15:00
V
32 °C 10 km+ - 080° 080° 6 kt METAR SBOI 221800Z AUTO 08006KT 020V150 9999 FEW030 32/25 Q1011
14:00
V
29 °C 10 km+ - 150° 150° 5 kt METAR SBOI 221700Z AUTO 15005KT 100V190 9999 -RA SCT017 29/25 Q1012
13:00
V
28 °C 10 km+ - 150° 150° 3 kt METAR SBOI 221600Z AUTO 15003KT 120V180 CAVOK 28/25 Q1013 RERA
12:41
V
27 °C 10 km+ 3.900 ft 170° 170° 5 kt METAR SBOI 221541Z AUTO 17005KT 150V210 9999 -RA FEW022 SCT025 BKN039 27/25 Q1013 RERA
12:30
V
26 °C 8 km 3.100 ft 130° 130° 6 kt METAR SBOI 221530Z AUTO 13006KT 090V210 8000 +RA SCT022 BKN031 OVC039 26/24 Q1014
12:00
M
29 °C 10 km+ 2.600 ft 170° 170° 13 kt METAR SBOI 221500Z AUTO 17013KT 9999 BKN026 29/24 Q1014
11:00
M
30 °C 10 km+ 2.200 ft Var Var 2 kt METAR SBOI 221400Z AUTO VRB02KT 9999 BKN022 30/25 Q1014
10:00
V
29 °C 10 km+ - 080° 080° 4 kt METAR SBOI 221300Z AUTO 08004KT 010V150 9999 FEW011 29/26 Q1014
09:00
V
25 °C 10 km+ - 030° 030° 3 kt METAR SBOI 221200Z AUTO 03003KT 360V070 9999 FEW005 25/25 Q1014 RERA
08:42
M
25 °C 10 km+ 2.900 ft 360° 360° 4 kt METAR SBOI 221142Z AUTO 36004KT 330V030 9999 -RA SCT007 BKN029 25/25 Q1014 RERA
08:31
I
25 °C 10 km+ 900 ft 030° 030° 4 kt METAR SBOI 221131Z AUTO 03004KT 340V060 9999 // BKN009/// BKN100/// 25/24 Q1014
08:29
M
25 °C 10 km+ 1.300 ft 020° 020° 3 kt METAR SBOI 221129Z AUTO 02003KT 340V060 9999 // BKN013/// BKN100/// 25/25 Q1014
07:00
L
24 °C 10 km+ 400 ft 010° 010° 4 kt METAR SBOI 221000Z AUTO 01004KT 9999 // SCT001/// BKN004/// BKN089/// 24/24 Q1013
07:01
L
24 °C 9 km 100 ft 010° 010° 4 kt METAR SBOI 221001Z AUTO 01004KT 9000 // BKN001/// BKN004/// 24/24 Q1013
07:03
L
24 °C 2,6 km 400 ft 020° 020° 4 kt METAR SBOI 221003Z AUTO 02004KT 2600 // SCT001/// BKN004/// 24/24 Q1013
06:40
L
24 °C 8 km 400 ft Var Var 1 kt METAR SBOI 220940Z AUTO VRB01KT 8000 // FEW001/// BKN004/// OVC088/// 24/24 Q1013
06:29
L
24 °C 2,1 km 200 ft Var Var 2 kt METAR SBOI 220929Z AUTO VRB02KT 2100 // VV002 24/24 Q1013
06:16
L
24 °C 1,2 km 200 ft Var Var 1 kt METAR SBOI 220916Z AUTO VRB01KT 1200 // VV002 24/24 Q1012
06:00
L
24 °C 1 km 100 ft 200° 200° 2 kt METAR SBOI 220900Z AUTO 20002KT 1000 // VV001 24/24 Q1012
05:00
L
24 °C 600 m 100 ft 360° 360° 0 kt METAR SBOI 220800Z AUTO 00000KT 0600 // VV001 24/24 Q1012
04:00
L
24 °C 1,2 km 200 ft 360° 360° 0 kt METAR SBOI 220700Z AUTO 00000KT 1200 // VV002 24/24 Q1012
04:03
L
24 °C 2,7 km 200 ft 360° 360° 0 kt METAR SBOI 220703Z AUTO 00000KT 2700 // VV002 24/24 Q1012
03:44
L
24 °C 650 m 100 ft 360° 360° 0 kt METAR SBOI 220644Z AUTO 00000KT 0650 // VV001 24/24 Q1012
03:32
L
24 °C 1,3 km 100 ft 360° 360° 0 kt METAR SBOI 220632Z AUTO 00000KT 1300 // VV001 24/24 Q1012
03:24
L
24 °C 2,5 km 200 ft 360° 360° 0 kt METAR SBOI 220624Z AUTO 00000KT 2500 // VV002 24/24 Q1012
03:16
L
24 °C 2,9 km 100 ft 360° 360° 0 kt METAR SBOI 220616Z AUTO 00000KT 2900 // BKN001/// OVC004/// 24/24 Q1012
03:00
L
24 °C 10 km+ 100 ft 200° 200° 1 kt METAR SBOI 220600Z AUTO 20001KT 9999 // OVC001/// 24/24 Q1012
Wijziging doorgeven